RYR2WY LHBP-EDDN
Flight info
| Callsign | RYR2WY |
|---|---|
| Flight time | 1h 15m |
| Altitude | 24000 |
| Route | GILEP DCT ZOLKU DCT ARSIN DCT SUBEN T161 AKINI Z109 UPALA UPALA1V |
| Aircraft | B738/M-SDE3FGILRWY/SB1 |
Departure
| Time | 2026-05-04 19:02 |
|---|---|
| Airport | Budapest Liszt Ferenc International Airport (LHBP) |
Arrival
| Time | 2026-05-04 20:18 |
|---|---|
| Airport | Nuremberg Airport (EDDN) |
| Time | Latitude | Longitude | Altitude | Speed | Heading |
|---|---|---|---|---|---|
| 2026-05-04 18:29 | 47.43397 | 19.26660 | 456 ft | 0 kts | 222° |
| 2026-05-04 18:50 | 47.43407 | 19.26673 | 456 ft | 4 kts | 222° |
| 2026-05-04 18:50 | 47.43424 | 19.26696 | 456 ft | 4 kts | 231° |
| 2026-05-04 18:50 | 47.43431 | 19.26726 | 456 ft | 4 kts | 295° |
| 2026-05-04 18:50 | 47.43415 | 19.26757 | 456 ft | 4 kts | 317° |
| 2026-05-04 18:51 | 47.43400 | 19.26779 | 455 ft | 0 kts | 312° |
| 2026-05-04 18:51 | 47.43399 | 19.26779 | 455 ft | 0 kts | 312° |
| 2026-05-04 18:54 | 47.43400 | 19.26778 | 457 ft | 1 kts | 312° |
| 2026-05-04 18:54 | 47.43416 | 19.26753 | 456 ft | 5 kts | 313° |
| 2026-05-04 18:54 | 47.43451 | 19.26696 | 457 ft | 9 kts | 313° |
| 2026-05-04 18:54 | 47.43482 | 19.26647 | 455 ft | 0 kts | 312° |
| 2026-05-04 18:56 | 47.43482 | 19.26646 | 455 ft | 1 kts | 312° |
| 2026-05-04 18:56 | 47.43491 | 19.26632 | 457 ft | 5 kts | 311° |
| 2026-05-04 18:57 | 47.43511 | 19.26599 | 457 ft | 7 kts | 311° |
| 2026-05-04 18:57 | 47.43535 | 19.26559 | 457 ft | 9 kts | 312° |
| 2026-05-04 18:57 | 47.43578 | 19.26489 | 457 ft | 10 kts | 312° |
| 2026-05-04 18:57 | 47.43636 | 19.26397 | 457 ft | 14 kts | 312° |
| 2026-05-04 18:58 | 47.43716 | 19.26371 | 457 ft | 14 kts | 39° |
| 2026-05-04 18:58 | 47.43795 | 19.26409 | 456 ft | 13 kts | 326° |
| 2026-05-04 18:58 | 47.43855 | 19.26311 | 457 ft | 13 kts | 311° |
| 2026-05-04 18:58 | 47.43908 | 19.26224 | 457 ft | 8 kts | 311° |
| 2026-05-04 18:59 | 47.43948 | 19.26207 | 457 ft | 5 kts | 14° |
| 2026-05-04 18:59 | 47.43978 | 19.26238 | 455 ft | 5 kts | 43° |
| 2026-05-04 18:59 | 47.43996 | 19.26262 | 459 ft | 0 kts | 42° |
| 2026-05-04 19:00 | 47.43998 | 19.26265 | 457 ft | 2 kts | 42° |
| 2026-05-04 19:00 | 47.44027 | 19.26303 | 461 ft | 9 kts | 43° |
| 2026-05-04 19:00 | 47.44062 | 19.26387 | 468 ft | 10 kts | 69° |
| 2026-05-04 19:00 | 47.44086 | 19.26481 | 470 ft | 10 kts | 50° |
| 2026-05-04 19:01 | 47.44085 | 19.26497 | 469 ft | 0 kts | 130° |
| 2026-05-04 19:01 | 47.44080 | 19.26507 | 469 ft | 8 kts | 132° |
| 2026-05-04 19:01 | 47.43874 | 19.26839 | 471 ft | 79 kts | 133° |
| 2026-05-04 19:02 | 47.43353 | 19.27677 | 461 ft | 140 kts | 133° |
| 2026-05-04 19:02 | 47.42628 | 19.28812 | 849 ft | 155 kts | 133° |
| 2026-05-04 19:02 | 47.41900 | 19.30086 | 1379 ft | 166 kts | 127° |
| 2026-05-04 19:02 | 47.41413 | 19.31655 | 2006 ft | 174 kts | 116° |
| 2026-05-04 19:03 | 47.40843 | 19.33346 | 2313 ft | 197 kts | 124° |
| 2026-05-04 19:03 | 47.40127 | 19.35165 | 2654 ft | 212 kts | 124° |
| 2026-05-04 19:03 | 47.39375 | 19.37077 | 3109 ft | 218 kts | 124° |
| 2026-05-04 19:03 | 47.38577 | 19.39022 | 3536 ft | 230 kts | 131° |
| 2026-05-04 19:04 | 47.37231 | 19.40385 | 3751 ft | 246 kts | 167° |
| 2026-05-04 19:04 | 47.35515 | 19.40366 | 4272 ft | 253 kts | 197° |
| 2026-05-04 19:04 | 47.34032 | 19.38992 | 4957 ft | 258 kts | 226° |
| 2026-05-04 19:04 | 47.32980 | 19.36822 | 5633 ft | 263 kts | 237° |
| 2026-05-04 19:05 | 47.32055 | 19.34462 | 6325 ft | 268 kts | 239° |
| 2026-05-04 19:05 | 47.31138 | 19.32049 | 7147 ft | 272 kts | 239° |
| 2026-05-04 19:05 | 47.30209 | 19.29611 | 8070 ft | 274 kts | 239° |
| 2026-05-04 19:05 | 47.29262 | 19.27161 | 8979 ft | 277 kts | 239° |
| 2026-05-04 19:06 | 47.28293 | 19.24692 | 9870 ft | 281 kts | 239° |
| 2026-05-04 19:06 | 47.27293 | 19.22172 | 10532 ft | 292 kts | 238° |
| 2026-05-04 19:06 | 47.26216 | 19.19470 | 10731 ft | 319 kts | 239° |
| 2026-05-04 19:06 | 47.25064 | 19.16587 | 11227 ft | 333 kts | 238° |
| 2026-05-04 19:07 | 47.23879 | 19.13630 | 11975 ft | 338 kts | 238° |
| 2026-05-04 19:07 | 47.22676 | 19.10637 | 12798 ft | 341 kts | 239° |
| 2026-05-04 19:07 | 47.21744 | 19.07410 | 13532 ft | 349 kts | 257° |
| 2026-05-04 19:07 | 47.21711 | 19.03837 | 14256 ft | 355 kts | 280° |
| 2026-05-04 19:08 | 47.22310 | 19.00309 | 15016 ft | 357 kts | 283° |
| 2026-05-04 19:08 | 47.22928 | 18.96750 | 15737 ft | 361 kts | 283° |
| 2026-05-04 19:08 | 47.23543 | 18.93150 | 16442 ft | 365 kts | 283° |
| 2026-05-04 19:08 | 47.24155 | 18.89511 | 17195 ft | 367 kts | 283° |
| 2026-05-04 19:09 | 47.24764 | 18.85843 | 17661 ft | 368 kts | 283° |
| 2026-05-04 19:09 | 47.25363 | 18.82193 | 17798 ft | 368 kts | 283° |
| 2026-05-04 19:09 | 47.25964 | 18.78505 | 17973 ft | 370 kts | 282° |
| 2026-05-04 19:09 | 47.26560 | 18.74820 | 18043 ft | 372 kts | 283° |
| 2026-05-04 19:10 | 47.27149 | 18.71159 | 18045 ft | 373 kts | 283° |
| 2026-05-04 19:10 | 47.27749 | 18.67420 | 18409 ft | 378 kts | 282° |
| 2026-05-04 19:10 | 47.28352 | 18.63646 | 19068 ft | 379 kts | 283° |
| 2026-05-04 19:10 | 47.28954 | 18.59870 | 19811 ft | 378 kts | 283° |
| 2026-05-04 19:11 | 47.29555 | 18.56091 | 20418 ft | 382 kts | 282° |
| 2026-05-04 19:11 | 47.30161 | 18.52270 | 21013 ft | 384 kts | 282° |
| 2026-05-04 19:11 | 47.30769 | 18.48431 | 21689 ft | 386 kts | 283° |
| 2026-05-04 19:11 | 47.31380 | 18.44563 | 22227 ft | 390 kts | 283° |
| 2026-05-04 19:12 | 47.31996 | 18.40653 | 22802 ft | 393 kts | 283° |
| 2026-05-04 19:12 | 47.33240 | 18.32730 | 23853 ft | 400 kts | 283° |
| 2026-05-04 19:12 | 47.33865 | 18.28730 | 24326 ft | 402 kts | 283° |
| 2026-05-04 19:13 | 47.34493 | 18.24705 | 24788 ft | 404 kts | 283° |
| 2026-05-04 19:13 | 47.35125 | 18.20649 | 25229 ft | 407 kts | 283° |
| 2026-05-04 19:13 | 47.35759 | 18.16564 | 25662 ft | 410 kts | 283° |
| 2026-05-04 19:13 | 47.36396 | 18.12452 | 26099 ft | 412 kts | 283° |
| 2026-05-04 19:14 | 47.37034 | 18.08321 | 26535 ft | 415 kts | 283° |
| 2026-05-04 19:14 | 47.37675 | 18.04159 | 26958 ft | 417 kts | 283° |
| 2026-05-04 19:14 | 47.38318 | 17.99975 | 27366 ft | 420 kts | 283° |
| 2026-05-04 19:14 | 47.38964 | 17.95761 | 27764 ft | 422 kts | 283° |
| 2026-05-04 19:15 | 47.39612 | 17.91523 | 28153 ft | 425 kts | 283° |
| 2026-05-04 19:15 | 47.40262 | 17.87260 | 28569 ft | 426 kts | 283° |
| 2026-05-04 19:15 | 47.40910 | 17.82997 | 29116 ft | 425 kts | 283° |
| 2026-05-04 19:15 | 47.41553 | 17.78754 | 29696 ft | 422 kts | 283° |
| 2026-05-04 19:16 | 47.42191 | 17.74529 | 30209 ft | 421 kts | 283° |
| 2026-05-04 19:16 | 47.42827 | 17.70313 | 30601 ft | 421 kts | 283° |
| 2026-05-04 19:16 | 47.43452 | 17.66158 | 31032 ft | 419 kts | 283° |
| 2026-05-04 19:16 | 47.44081 | 17.61965 | 31537 ft | 416 kts | 283° |
| 2026-05-04 19:17 | 47.44704 | 17.57800 | 32030 ft | 414 kts | 283° |
| 2026-05-04 19:17 | 47.45321 | 17.53664 | 32474 ft | 412 kts | 283° |
| 2026-05-04 19:17 | 47.45935 | 17.49536 | 32878 ft | 411 kts | 283° |
| 2026-05-04 19:17 | 47.46547 | 17.45418 | 33320 ft | 409 kts | 283° |
| 2026-05-04 19:18 | 47.47156 | 17.41306 | 33587 ft | 411 kts | 283° |
| 2026-05-04 19:18 | 47.47765 | 17.37181 | 33862 ft | 410 kts | 283° |
| 2026-05-04 19:18 | 47.48370 | 17.33074 | 33980 ft | 409 kts | 283° |
| 2026-05-04 19:19 | 47.49572 | 17.24878 | 33979 ft | 405 kts | 283° |
| 2026-05-04 19:19 | 47.50756 | 17.16764 | 33989 ft | 403 kts | 283° |
| 2026-05-04 19:20 | 47.51934 | 17.08649 | 33980 ft | 404 kts | 283° |
| 2026-05-04 19:20 | 47.53685 | 17.00783 | 33972 ft | 403 kts | 292° |
| 2026-05-04 19:21 | 47.55787 | 16.93079 | 33973 ft | 404 kts | 291° |
| 2026-05-04 19:21 | 47.57880 | 16.85351 | 33965 ft | 404 kts | 291° |
| 2026-05-04 19:22 | 47.59937 | 16.77604 | 33963 ft | 404 kts | 291° |
| 2026-05-04 19:22 | 47.61973 | 16.69842 | 33963 ft | 404 kts | 290° |
| 2026-05-04 19:23 | 47.63998 | 16.62068 | 33949 ft | 404 kts | 290° |
| 2026-05-04 19:23 | 47.66017 | 16.54297 | 33959 ft | 404 kts | 291° |
| 2026-05-04 19:24 | 47.68049 | 16.46525 | 33956 ft | 404 kts | 291° |
| 2026-05-04 19:24 | 47.70058 | 16.38752 | 33956 ft | 404 kts | 290° |
| 2026-05-04 19:25 | 47.72049 | 16.31014 | 33946 ft | 403 kts | 290° |
| 2026-05-04 19:25 | 47.74059 | 16.23179 | 33949 ft | 403 kts | 290° |
| 2026-05-04 19:26 | 47.76038 | 16.15437 | 33956 ft | 404 kts | 290° |
| 2026-05-04 19:26 | 47.78026 | 16.07638 | 33952 ft | 404 kts | 290° |
| 2026-05-04 19:27 | 47.80014 | 15.99812 | 33948 ft | 405 kts | 290° |
| 2026-05-04 19:27 | 47.81999 | 15.91968 | 33953 ft | 406 kts | 290° |
| 2026-05-04 19:28 | 47.83983 | 15.84103 | 33953 ft | 406 kts | 290° |
| 2026-05-04 19:28 | 47.85968 | 15.76210 | 33961 ft | 407 kts | 289° |
| 2026-05-04 19:29 | 47.87944 | 15.68321 | 33947 ft | 406 kts | 289° |
| 2026-05-04 19:29 | 47.89908 | 15.60454 | 33937 ft | 404 kts | 289° |
| 2026-05-04 19:30 | 47.91858 | 15.52615 | 33939 ft | 403 kts | 289° |
| 2026-05-04 19:30 | 47.93801 | 15.44778 | 33936 ft | 403 kts | 289° |
| 2026-05-04 19:31 | 47.95740 | 15.36933 | 33934 ft | 404 kts | 288° |
| 2026-05-04 19:31 | 47.97680 | 15.29046 | 33930 ft | 406 kts | 288° |
| 2026-05-04 19:32 | 47.99623 | 15.21121 | 33916 ft | 408 kts | 289° |
| 2026-05-04 19:32 | 48.01570 | 15.13156 | 33915 ft | 409 kts | 289° |
| 2026-05-04 19:33 | 48.03521 | 15.05146 | 33924 ft | 411 kts | 289° |
| 2026-05-04 19:33 | 48.05471 | 14.97108 | 33915 ft | 412 kts | 288° |
| 2026-05-04 19:34 | 48.07423 | 14.89036 | 33903 ft | 413 kts | 288° |
| 2026-05-04 19:34 | 48.09371 | 14.80950 | 33907 ft | 413 kts | 288° |
| 2026-05-04 19:35 | 48.11315 | 14.72850 | 33896 ft | 414 kts | 288° |
| 2026-05-04 19:35 | 48.13251 | 14.64753 | 33892 ft | 413 kts | 288° |
| 2026-05-04 19:36 | 48.15180 | 14.56656 | 33890 ft | 413 kts | 287° |
| 2026-05-04 19:36 | 48.17101 | 14.48561 | 33889 ft | 412 kts | 287° |
| 2026-05-04 19:37 | 48.19012 | 14.40479 | 33885 ft | 411 kts | 287° |
| 2026-05-04 19:37 | 48.20913 | 14.32411 | 33885 ft | 410 kts | 287° |
| 2026-05-04 19:38 | 48.22806 | 14.24348 | 33887 ft | 409 kts | 287° |
| 2026-05-04 19:38 | 48.24685 | 14.16313 | 33884 ft | 409 kts | 287° |
| 2026-05-04 19:39 | 48.26563 | 14.08249 | 33885 ft | 408 kts | 287° |
| 2026-05-04 19:39 | 48.28432 | 14.00197 | 33889 ft | 408 kts | 287° |
| 2026-05-04 19:40 | 48.30296 | 13.92139 | 33892 ft | 409 kts | 287° |
| 2026-05-04 19:40 | 48.32141 | 13.84129 | 33905 ft | 409 kts | 286° |
| 2026-05-04 19:41 | 48.33995 | 13.76050 | 33892 ft | 409 kts | 286° |
| 2026-05-04 19:41 | 48.35844 | 13.67964 | 33891 ft | 409 kts | 286° |
| 2026-05-04 19:42 | 48.37687 | 13.59875 | 33887 ft | 409 kts | 286° |
| 2026-05-04 19:42 | 48.39521 | 13.51789 | 33891 ft | 408 kts | 286° |
| 2026-05-04 19:43 | 48.41348 | 13.43711 | 33907 ft | 408 kts | 285° |
| 2026-05-04 19:43 | 48.43170 | 13.35622 | 33894 ft | 408 kts | 285° |
| 2026-05-04 19:44 | 48.45147 | 13.27621 | 33896 ft | 409 kts | 289° |
| 2026-05-04 19:44 | 48.46936 | 13.21033 | 33882 ft | 409 kts | 289° |
| 2026-05-04 19:45 | 48.49075 | 13.13093 | 33891 ft | 409 kts | 288° |
| 2026-05-04 19:45 | 48.51182 | 13.05137 | 33918 ft | 409 kts | 288° |
| 2026-05-04 19:46 | 48.53283 | 12.97158 | 33903 ft | 409 kts | 288° |
| 2026-05-04 19:46 | 48.55376 | 12.89155 | 33898 ft | 410 kts | 288° |
| 2026-05-04 19:47 | 48.57454 | 12.81141 | 33903 ft | 411 kts | 288° |
| 2026-05-04 19:47 | 48.59535 | 12.73091 | 33897 ft | 412 kts | 288° |
| 2026-05-04 19:48 | 48.61602 | 12.65041 | 33654 ft | 407 kts | 287° |
| 2026-05-04 19:48 | 48.62614 | 12.61100 | 33382 ft | 399 kts | 287° |
| 2026-05-04 19:48 | 48.63613 | 12.57210 | 33101 ft | 394 kts | 287° |
| 2026-05-04 19:48 | 48.64598 | 12.53371 | 32829 ft | 390 kts | 287° |
| 2026-05-04 19:49 | 48.65575 | 12.49550 | 32565 ft | 389 kts | 287° |
| 2026-05-04 19:49 | 48.66548 | 12.45741 | 32305 ft | 389 kts | 288° |
| 2026-05-04 19:49 | 48.67521 | 12.41923 | 32041 ft | 388 kts | 288° |
| 2026-05-04 19:49 | 48.68490 | 12.38116 | 31792 ft | 386 kts | 288° |
| 2026-05-04 19:50 | 48.69456 | 12.34335 | 31539 ft | 384 kts | 288° |
| 2026-05-04 19:50 | 48.70414 | 12.30573 | 31283 ft | 383 kts | 288° |
| 2026-05-04 19:50 | 48.71366 | 12.26815 | 31044 ft | 381 kts | 288° |
| 2026-05-04 19:50 | 48.72310 | 12.23083 | 30796 ft | 378 kts | 288° |
| 2026-05-04 19:51 | 48.73230 | 12.19439 | 30518 ft | 373 kts | 288° |
| 2026-05-04 19:51 | 48.74152 | 12.15780 | 30173 ft | 370 kts | 289° |
| 2026-05-04 19:51 | 48.75213 | 12.12241 | 29795 ft | 370 kts | 297° |
| 2026-05-04 19:51 | 48.76659 | 12.09036 | 29473 ft | 367 kts | 305° |
| 2026-05-04 19:52 | 48.78237 | 12.06010 | 29079 ft | 364 kts | 306° |
| 2026-05-04 19:52 | 48.79813 | 12.03035 | 28739 ft | 360 kts | 306° |
| 2026-05-04 19:52 | 48.81377 | 12.00082 | 28357 ft | 357 kts | 306° |
| 2026-05-04 19:52 | 48.82922 | 11.97150 | 28006 ft | 354 kts | 306° |
| 2026-05-04 19:53 | 48.84450 | 11.94234 | 27651 ft | 352 kts | 306° |
| 2026-05-04 19:53 | 48.85962 | 11.91334 | 27302 ft | 349 kts | 305° |
| 2026-05-04 19:53 | 48.87463 | 11.88446 | 26957 ft | 347 kts | 305° |
| 2026-05-04 19:53 | 48.88949 | 11.85580 | 26610 ft | 345 kts | 305° |
| 2026-05-04 19:54 | 48.90425 | 11.82726 | 26262 ft | 343 kts | 305° |
| 2026-05-04 19:54 | 48.91895 | 11.79881 | 25924 ft | 341 kts | 305° |
| 2026-05-04 19:54 | 48.93356 | 11.77050 | 25587 ft | 339 kts | 305° |
| 2026-05-04 19:54 | 48.94796 | 11.74259 | 25452 ft | 331 kts | 304° |
| 2026-05-04 19:55 | 48.96216 | 11.71500 | 25158 ft | 331 kts | 304° |
| 2026-05-04 19:55 | 48.97632 | 11.68747 | 24850 ft | 331 kts | 304° |
| 2026-05-04 19:55 | 48.99062 | 11.65961 | 24536 ft | 339 kts | 304° |
| 2026-05-04 19:55 | 49.00537 | 11.63080 | 24200 ft | 350 kts | 304° |
| 2026-05-04 19:56 | 49.02040 | 11.60145 | 23839 ft | 352 kts | 304° |
| 2026-05-04 19:56 | 49.03544 | 11.57211 | 23461 ft | 351 kts | 304° |
| 2026-05-04 19:56 | 49.05041 | 11.54288 | 23058 ft | 349 kts | 304° |
| 2026-05-04 19:56 | 49.06526 | 11.51385 | 22688 ft | 346 kts | 304° |
| 2026-05-04 19:57 | 49.08003 | 11.48494 | 22327 ft | 344 kts | 304° |
| 2026-05-04 19:57 | 49.09465 | 11.45629 | 21970 ft | 342 kts | 304° |
| 2026-05-04 19:57 | 49.10918 | 11.42776 | 21635 ft | 339 kts | 304° |
| 2026-05-04 19:57 | 49.12354 | 11.39954 | 21374 ft | 334 kts | 304° |
| 2026-05-04 19:58 | 49.13775 | 11.37158 | 21133 ft | 332 kts | 304° |
| 2026-05-04 19:58 | 49.15177 | 11.34396 | 20877 ft | 328 kts | 304° |
| 2026-05-04 19:58 | 49.16570 | 11.31649 | 20541 ft | 326 kts | 304° |
| 2026-05-04 19:58 | 49.17951 | 11.28925 | 20220 ft | 324 kts | 304° |
| 2026-05-04 19:59 | 49.19326 | 11.26208 | 19904 ft | 322 kts | 304° |
| 2026-05-04 19:59 | 49.20673 | 11.23546 | 19585 ft | 320 kts | 305° |
| 2026-05-04 19:59 | 49.22112 | 11.20946 | 19283 ft | 321 kts | 314° |
| 2026-05-04 19:59 | 49.23798 | 11.18696 | 19066 ft | 321 kts | 317° |
| 2026-05-04 20:00 | 49.25520 | 11.16512 | 18779 ft | 323 kts | 317° |
| 2026-05-04 20:00 | 49.27252 | 11.14268 | 18322 ft | 330 kts | 316° |
| 2026-05-04 20:00 | 49.28843 | 11.11730 | 17757 ft | 330 kts | 298° |
| 2026-05-04 20:00 | 49.29663 | 11.08500 | 17257 ft | 325 kts | 278° |
| 2026-05-04 20:01 | 49.30010 | 11.05081 | 16766 ft | 324 kts | 275° |
| 2026-05-04 20:01 | 49.30307 | 11.01688 | 16241 ft | 319 kts | 275° |
| 2026-05-04 20:01 | 49.30612 | 10.98347 | 15738 ft | 315 kts | 275° |
| 2026-05-04 20:01 | 49.30926 | 10.95051 | 15255 ft | 311 kts | 275° |
| 2026-05-04 20:02 | 49.31240 | 10.91790 | 14773 ft | 309 kts | 275° |
| 2026-05-04 20:02 | 49.31554 | 10.88543 | 14299 ft | 307 kts | 275° |
| 2026-05-04 20:02 | 49.31868 | 10.85308 | 13826 ft | 306 kts | 275° |
| 2026-05-04 20:02 | 49.32178 | 10.82101 | 13302 ft | 303 kts | 275° |
| 2026-05-04 20:03 | 49.32483 | 10.78931 | 12818 ft | 298 kts | 275° |
| 2026-05-04 20:03 | 49.32783 | 10.75809 | 12321 ft | 295 kts | 275° |
| 2026-05-04 20:03 | 49.33148 | 10.72731 | 11809 ft | 295 kts | 286° |
| 2026-05-04 20:03 | 49.34264 | 10.70109 | 11378 ft | 298 kts | 314° |
| 2026-05-04 20:04 | 49.36005 | 10.68400 | 10956 ft | 300 kts | 336° |
| 2026-05-04 20:04 | 49.38064 | 10.67776 | 10557 ft | 307 kts | 359° |
| 2026-05-04 20:04 | 49.40160 | 10.68401 | 10149 ft | 311 kts | 23° |
| 2026-05-04 20:04 | 49.41925 | 10.70296 | 9740 ft | 312 kts | 49° |
| 2026-05-04 20:05 | 49.43005 | 10.73142 | 9306 ft | 309 kts | 75° |
| 2026-05-04 20:05 | 49.43280 | 10.76354 | 8987 ft | 298 kts | 96° |
| 2026-05-04 20:05 | 49.43021 | 10.79441 | 8713 ft | 286 kts | 102° |
| 2026-05-04 20:05 | 49.42687 | 10.82410 | 8439 ft | 278 kts | 103° |
| 2026-05-04 20:06 | 49.42347 | 10.85318 | 8166 ft | 276 kts | 103° |
| 2026-05-04 20:06 | 49.42012 | 10.88212 | 7918 ft | 275 kts | 102° |
| 2026-05-04 20:06 | 49.41683 | 10.91109 | 7664 ft | 276 kts | 102° |
| 2026-05-04 20:06 | 49.41358 | 10.94020 | 7421 ft | 275 kts | 102° |
| 2026-05-04 20:07 | 49.41041 | 10.96886 | 7161 ft | 269 kts | 102° |
| 2026-05-04 20:07 | 49.40733 | 10.99678 | 6908 ft | 263 kts | 102° |
| 2026-05-04 20:07 | 49.40433 | 11.02413 | 6661 ft | 258 kts | 102° |
| 2026-05-04 20:07 | 49.40137 | 11.05107 | 6407 ft | 254 kts | 101° |
| 2026-05-04 20:08 | 49.39846 | 11.07781 | 6116 ft | 254 kts | 101° |
| 2026-05-04 20:08 | 49.39555 | 11.10437 | 5867 ft | 252 kts | 101° |
| 2026-05-04 20:08 | 49.39265 | 11.13078 | 5623 ft | 250 kts | 101° |
| 2026-05-04 20:08 | 49.38987 | 11.15711 | 5537 ft | 249 kts | 99° |
| 2026-05-04 20:09 | 49.38727 | 11.18333 | 5507 ft | 248 kts | 99° |
| 2026-05-04 20:09 | 49.38469 | 11.20942 | 5493 ft | 246 kts | 99° |
| 2026-05-04 20:09 | 49.38213 | 11.23520 | 5493 ft | 243 kts | 99° |
| 2026-05-04 20:09 | 49.37958 | 11.26074 | 5489 ft | 241 kts | 99° |
| 2026-05-04 20:10 | 49.37703 | 11.28622 | 5497 ft | 242 kts | 99° |
| 2026-05-04 20:10 | 49.37446 | 11.31172 | 5500 ft | 242 kts | 99° |
| 2026-05-04 20:10 | 49.37188 | 11.33728 | 5502 ft | 243 kts | 99° |
| 2026-05-04 20:10 | 49.36932 | 11.36255 | 5495 ft | 242 kts | 99° |
| 2026-05-04 20:11 | 49.36673 | 11.38803 | 5501 ft | 242 kts | 99° |
| 2026-05-04 20:11 | 49.36428 | 11.41356 | 5491 ft | 242 kts | 94° |
| 2026-05-04 20:11 | 49.36728 | 11.43877 | 5438 ft | 243 kts | 63° |
| 2026-05-04 20:11 | 49.37831 | 11.45814 | 5231 ft | 246 kts | 33° |
| 2026-05-04 20:12 | 49.39421 | 11.46769 | 5034 ft | 246 kts | 13° |
| 2026-05-04 20:12 | 49.41115 | 11.46755 | 4809 ft | 246 kts | 343° |
| 2026-05-04 20:12 | 49.42562 | 11.45459 | 4611 ft | 237 kts | 318° |
| 2026-05-04 20:12 | 49.43699 | 11.43732 | 4406 ft | 224 kts | 315° |
| 2026-05-04 20:13 | 49.44749 | 11.42047 | 4165 ft | 212 kts | 314° |
| 2026-05-04 20:13 | 49.45729 | 11.40453 | 4019 ft | 200 kts | 314° |
| 2026-05-04 20:13 | 49.46619 | 11.38891 | 3997 ft | 189 kts | 301° |
| 2026-05-04 20:13 | 49.46972 | 11.37009 | 4034 ft | 184 kts | 281° |
| 2026-05-04 20:14 | 49.47205 | 11.35073 | 3995 ft | 183 kts | 281° |
| 2026-05-04 20:14 | 49.47411 | 11.33154 | 3988 ft | 181 kts | 279° |
| 2026-05-04 20:14 | 49.47603 | 11.31208 | 3845 ft | 186 kts | 279° |
| 2026-05-04 20:14 | 49.47793 | 11.29232 | 3598 ft | 186 kts | 279° |
| 2026-05-04 20:15 | 49.47980 | 11.27272 | 3354 ft | 184 kts | 280° |
| 2026-05-04 20:15 | 49.48165 | 11.25342 | 3122 ft | 180 kts | 280° |
| 2026-05-04 20:15 | 49.48344 | 11.23491 | 2869 ft | 171 kts | 280° |
| 2026-05-04 20:15 | 49.48514 | 11.21725 | 2644 ft | 165 kts | 281° |
| 2026-05-04 20:16 | 49.48683 | 11.19984 | 2429 ft | 164 kts | 281° |
| 2026-05-04 20:16 | 49.48848 | 11.18274 | 2245 ft | 158 kts | 282° |
| 2026-05-04 20:16 | 49.49008 | 11.16634 | 2009 ft | 155 kts | 281° |
| 2026-05-04 20:16 | 49.49165 | 11.15017 | 1787 ft | 150 kts | 281° |
| 2026-05-04 20:17 | 49.49321 | 11.13434 | 1613 ft | 152 kts | 279° |
| 2026-05-04 20:17 | 49.49474 | 11.11828 | 1416 ft | 153 kts | 279° |
| 2026-05-04 20:17 | 49.49629 | 11.10212 | 1193 ft | 151 kts | 279° |
| 2026-05-04 20:17 | 49.49787 | 11.08641 | 1038 ft | 142 kts | 279° |
| 2026-05-04 20:18 | 49.49903 | 11.07457 | 1020 ft | 81 kts | 278° |
| 2026-05-04 20:18 | 49.49961 | 11.06849 | 1023 ft | 40 kts | 277° |
| 2026-05-04 20:18 | 49.49989 | 11.06568 | 1023 ft | 13 kts | 272° |
| 2026-05-04 20:18 | 49.49931 | 11.06478 | 1022 ft | 13 kts | 184° |
| 2026-05-04 20:19 | 49.49845 | 11.06515 | 1020 ft | 13 kts | 158° |
| 2026-05-04 20:19 | 49.49796 | 11.06597 | 1019 ft | 10 kts | 99° |
| 2026-05-04 20:19 | 49.49786 | 11.06705 | 1019 ft | 10 kts | 99° |
| 2026-05-04 20:19 | 49.49771 | 11.06858 | 1019 ft | 18 kts | 99° |
| 2026-05-04 20:20 | 49.49751 | 11.07045 | 1020 ft | 17 kts | 98° |
| 2026-05-04 20:20 | 49.49738 | 11.07185 | 1021 ft | 9 kts | 98° |
| 2026-05-04 20:20 | 49.49686 | 11.07225 | 1022 ft | 9 kts | 185° |
| 2026-05-04 20:20 | 49.49638 | 11.07240 | 1023 ft | 4 kts | 126° |
| 2026-05-04 20:21 | 49.49619 | 11.07246 | 1023 ft | 3 kts | 151° |
| 2026-05-04 20:21 | 49.49623 | 11.07377 | 1024 ft | 9 kts | 101° |
| 2026-05-04 20:22 | 49.49583 | 11.07399 | 1025 ft | 4 kts | 186° |
| 2026-05-04 20:22 | 49.49561 | 11.07395 | 1025 ft | 3 kts | 188° |
| 2026-05-04 20:22 | 49.49557 | 11.07394 | 1025 ft | 0 kts | 188° |